首页
METAR-TAF:

METAR-TAF

机场 :

Hutchinson, 堪薩斯州, 美国

纬度: 38-04-05N, 经度: 097-51-38W, 海拔: 470米

当前天气观测

该预报发布于37分钟前的14:52 UTC
风速10节,风向
温度 31°C
湿度 55%
气压 1012 hPa
能見度: 16.1公里
天空无云

METAR: KHUT 241452Z 19010KT 10SM CLR 31/21 A2989 RMK AO2 SLP096 T03110211 51006

时间: 10:29 (15:29 UTC)

预报

该预报发布于4小时和7分钟前的11:22 UTC
预报有效从24日的 12点(UTC)到 25日的 12点(UTC)
风速9节,风向
能見度: 10公里
天空无云
从 24日的 1600点(UTC)
风速16节,风向南转西南,有时为23节阵风
能見度: 10公里
天空无云
从 24日的 2300点(UTC)
风速14节,风向,有时为20节阵风
能見度: 10公里
散云层高于25000英尺
从 25日的 0600点(UTC)
风速9节,风向
能見度: 10公里
多云层高于20000英尺

TAF: KHUT 241122Z 2412/2512 17009KT P6SM SKC FM241600 20016G23KT P6SM SKC FM242300 18014G20KT P6SM SCT250 FM250600 18009KT P6SM BKN200

超过4000个机场的气象观测和天气预报(METAR&TAF报告)。

可查询的气象台以黄色和红色小点在地图上表示。

将鼠标移到小点上方,可查看气象台名称。

然后点击查看天气观测和预报。

如需切换地图:点击带黑十字的绿色按钮放大地图;点击带横线的绿色按钮缩小地图;或者点击绿色箭头查看邻近地区的地图。


METAR-TAF: